Terminal Aerodrome Forecast
Issued by NWS Corpus Christi, TX

Current Version | Previous Version | Text Only | Print | Product List | Glossary Off
Versions: 1 2 3 4 5 6 7 8 9 10 11 12 13 14

000
FTUS44 KCRP 200446 AAB
TAFCRP
TAF AMD
KCRP 200446Z 2005/2024 09010KT P6SM VCSH SCT025 BKN050
     FM200800 12006KT 5SM BR VCSH BKN020 BKN050
     FM201400 12005KT P6SM SCT030 BKN050
     FM202000 13012G18KT P6SM SCT030 BKN050=

USA.gov is the U.S. government's official web portal to all federal, state and local government web resources and services.